Mexico V — XCKR — position and weather

sailwx.info

Track history (hours):
 
Tides and Currents Weather Stations Pressure Air Temp Water Temp Dewpoint Dewpoint Depression Visibility Wind Speed Wind Dir Waves Ship Positions

Mexico V

Last reported at 2016-Sep-25 16:33 UTC. Time now 2016-Sep-25 17:31 UTC.
Position N 20°31' W 086°58'.

Length 40 m; draft 1.5 m.

Type: Ship. MMSI: 345110005.

Date/timePositionNaut miles runAvg speedWind from/ knotsBaromVisibWave heightAir tempDewpointWater temp
2016-Sep-25 16:33N 20°31' W 086°58'3 2.0
2016-Sep-25 15:17N 20°33' W 086°60'3 3.5
2016-Sep-25 14:33N 20°31' W 086°58'1 0.4
2016-Sep-25 12:33N 20°31' W 086°57'2 1.8
2016-Sep-25 11:34N 20°32' W 086°58'2 2.5
2016-Sep-25 10:33N 20°34' W 087°00'4 4.3
2016-Sep-25 09:33N 20°31' W 086°57'0 0.0
2016-Sep-25 00:33N 20°31' W 086°57'2 0.8
2016-Sep-24 22:33N 20°32' W 086°58'2 1.5
2016-Sep-24 21:19N 20°33' W 086°60'3 1.6
2016-Sep-24 19:34N 20°31' W 086°58'2 1.4
2016-Sep-24 18:15N 20°32' W 086°59'1 2.2
2016-Sep-24 17:34N 20°32' W 086°58'2 1.7
2016-Sep-24 16:16N 20°33' W 086°60'0 0.1
2016-Sep-24 14:15N 20°33' W 086°59'0 0.1
2016-Sep-24 12:16N 20°33' W 086°60'3 0.3
2016-Sep-24 01:25N 20°31' W 086°57'3 0.5
2016-Sep-23 19:15N 20°33' W 086°59'0 0.1
2016-Sep-23 17:17N 20°33' W 086°60'1 1.7
2016-Sep-23 16:33N 20°32' W 086°58'2 1.2
2016-Sep-23 15:16N 20°33' W 086°60'1 0.3
2016-Sep-23 13:17N 20°34' W 086°60'4 0.4
2016-Sep-23 03:11N 20°31' W 086°57'0 0.6
2016-Sep-23 02:33N 20°31' W 086°57'4 3.2
2016-Sep-23 01:18N 20°34' W 087°00'4 6.0
2016-Sep-23 00:33N 20°31' W 086°57'0 0.0
2016-Sep-22 23:33N 20°31' W 086°57'0 0.0
2016-Sep-22 20:33N 20°31' W 086°57'4 0.4
2016-Sep-22 12:17N 20°33' W 086°60'0 0.0
2016-Sep-22 00:20N 20°33' W 087°00'3 3.4
2016-Sep-21 23:33N 20°32' W 086°58'2 1.3
2016-Sep-21 22:16N 20°33' W 086°60'0 0.2
2016-Sep-21 19:15N 20°33' W 086°60'3 1.0
2016-Sep-21 16:33N 20°31' W 086°58'1 0.1
2016-Sep-21 03:11N 20°31' W 086°57'0 0.8
2016-Sep-21 02:34N 20°31' W 086°57'3 0.3
2016-Sep-20 17:33N 20°33' W 086°59'0 0.1
2016-Sep-20 14:18N 20°33' W 086°60'2 2.9
2016-Sep-20 13:33N 20°32' W 086°58'0 0.0
2016-Sep-19 23:34N 20°32' W 086°58'2 0.5
2016-Sep-19 19:20N 20°33' W 086°60'1 1.4
2016-Sep-19 18:33N 20°32' W 086°59'2 1.0
2016-Sep-19 16:33N 20°34' W 087°01'3 1.6
2016-Sep-19 14:34N 20°32' W 086°58'3 2.2
2016-Sep-19 13:21N 20°34' W 086°60'2 2.9
2016-Sep-19 12:33N 20°32' W 086°58'2 1.6
2016-Sep-19 11:20N 20°33' W 086°60'3 0.3
2016-Sep-19 02:33N 20°31' W 086°58'1 0.5
2016-Sep-19 00:33N 20°31' W 086°57'2 0.4
2016-Sep-18 19:34N 20°32' W 086°58'1 0.2
2016-Sep-18 15:34N 20°33' W 086°59'1 0.9
2016-Sep-18 14:18N 20°33' W 086°60'2 0.1
2016-Sep-18 01:34N 20°32' W 086°58'1 1.2
2016-Sep-18 00:20N 20°33' W 086°60'0 0.2
2016-Sep-17 22:19N 20°33' W 086°60'3 4.1
2016-Sep-17 21:33N 20°31' W 086°57'0 0.0
2016-Sep-17 20:33N 20°31' W 086°57'3 1.6
2016-Sep-17 18:47N 20°33' W 086°59'3 0.6
2016-Sep-17 13:33N 20°31' W 086°57'0 0.0
2016-Sep-17 12:33N 20°31' W 086°57'2 0.2
2016-Sep-17 00:34N 20°32' W 086°58'2 0.3
2016-Sep-16 17:33N 20°31' W 086°57'2 0.4
2016-Sep-16 12:33N 20°30' W 086°59'5 0.4
2016-Sep-16 00:23N 20°34' W 087°00'1 0.5
2016-Sep-15 22:19N 20°33' W 086°60'3 4.4
2016-Sep-15 21:33N 20°31' W 086°57'0 0.1
2016-Sep-15 18:33N 20°31' W 086°57'  
Track history (hours):
 
Tides and Currents Weather Stations Pressure Air Temp Water Temp Dewpoint Dewpoint Depression Visibility Wind Speed Wind Dir Waves Ship Positions

Mexico V

Last reported at 2016-Sep-25 16:33 UTC. Time now 2016-Sep-25 17:31 UTC.
Position N 20°31' W 086°58'.

Length 40 m; draft 1.5 m.

Type: Ship. MMSI: 345110005.

Date/timePositionNaut miles runAvg speedWind from/ knotsBaromVisibWave heightAir tempDewpointWater temp
2016-Sep-25 16:33N 20°31' W 086°58'3 2.0
2016-Sep-25 15:17N 20°33' W 086°60'3 3.5
2016-Sep-25 14:33N 20°31' W 086°58'1 0.4
2016-Sep-25 12:33N 20°31' W 086°57'2 1.8
2016-Sep-25 11:34N 20°32' W 086°58'2 2.5
2016-Sep-25 10:33N 20°34' W 087°00'4 4.3
2016-Sep-25 09:33N 20°31' W 086°57'0 0.0
2016-Sep-25 00:33N 20°31' W 086°57'2 0.8
2016-Sep-24 22:33N 20°32' W 086°58'2 1.5
2016-Sep-24 21:19N 20°33' W 086°60'3 1.6
2016-Sep-24 19:34N 20°31' W 086°58'2 1.4
2016-Sep-24 18:15N 20°32' W 086°59'1 2.2
2016-Sep-24 17:34N 20°32' W 086°58'2 1.7
2016-Sep-24 16:16N 20°33' W 086°60'0 0.1
2016-Sep-24 14:15N 20°33' W 086°59'0 0.1
2016-Sep-24 12:16N 20°33' W 086°60'3 0.3
2016-Sep-24 01:25N 20°31' W 086°57'3 0.5
2016-Sep-23 19:15N 20°33' W 086°59'0 0.1
2016-Sep-23 17:17N 20°33' W 086°60'1 1.7
2016-Sep-23 16:33N 20°32' W 086°58'2 1.2
2016-Sep-23 15:16N 20°33' W 086°60'1 0.3
2016-Sep-23 13:17N 20°34' W 086°60'4 0.4
2016-Sep-23 03:11N 20°31' W 086°57'0 0.6
2016-Sep-23 02:33N 20°31' W 086°57'4 3.2
2016-Sep-23 01:18N 20°34' W 087°00'4 6.0
2016-Sep-23 00:33N 20°31' W 086°57'0 0.0
2016-Sep-22 23:33N 20°31' W 086°57'0 0.0
2016-Sep-22 20:33N 20°31' W 086°57'4 0.4
2016-Sep-22 12:17N 20°33' W 086°60'0 0.0
2016-Sep-22 00:20N 20°33' W 087°00'3 3.4
2016-Sep-21 23:33N 20°32' W 086°58'2 1.3
2016-Sep-21 22:16N 20°33' W 086°60'0 0.2
2016-Sep-21 19:15N 20°33' W 086°60'3 1.0
2016-Sep-21 16:33N 20°31' W 086°58'1 0.1
2016-Sep-21 03:11N 20°31' W 086°57'0 0.8
2016-Sep-21 02:34N 20°31' W 086°57'3 0.3
2016-Sep-20 17:33N 20°33' W 086°59'0 0.1
2016-Sep-20 14:18N 20°33' W 086°60'2 2.9
2016-Sep-20 13:33N 20°32' W 086°58'0 0.0
2016-Sep-19 23:34N 20°32' W 086°58'2 0.5
2016-Sep-19 19:20N 20°33' W 086°60'1 1.4
2016-Sep-19 18:33N 20°32' W 086°59'2 1.0
2016-Sep-19 16:33N 20°34' W 087°01'3 1.6
2016-Sep-19 14:34N 20°32' W 086°58'3 2.2
2016-Sep-19 13:21N 20°34' W 086°60'2 2.9
2016-Sep-19 12:33N 20°32' W 086°58'2 1.6
2016-Sep-19 11:20N 20°33' W 086°60'3 0.3
2016-Sep-19 02:33N 20°31' W 086°58'1 0.5
2016-Sep-19 00:33N 20°31' W 086°57'2 0.4
2016-Sep-18 19:34N 20°32' W 086°58'1 0.2
2016-Sep-18 15:34N 20°33' W 086°59'1 0.9
2016-Sep-18 14:18N 20°33' W 086°60'2 0.1
2016-Sep-18 01:34N 20°32' W 086°58'1 1.2
2016-Sep-18 00:20N 20°33' W 086°60'0 0.2
2016-Sep-17 22:19N 20°33' W 086°60'3 4.1
2016-Sep-17 21:33N 20°31' W 086°57'0 0.0
2016-Sep-17 20:33N 20°31' W 086°57'3 1.6
2016-Sep-17 18:47N 20°33' W 086°59'3 0.6
2016-Sep-17 13:33N 20°31' W 086°57'0 0.0
2016-Sep-17 12:33N 20°31' W 086°57'2 0.2
2016-Sep-17 00:34N 20°32' W 086°58'2 0.3
2016-Sep-16 17:33N 20°31' W 086°57'2 0.4
2016-Sep-16 12:33N 20°30' W 086°59'5 0.4
2016-Sep-16 00:23N 20°34' W 087°00'1 0.5
2016-Sep-15 22:19N 20°33' W 086°60'3 4.4
2016-Sep-15 21:33N 20°31' W 086°57'0 0.1
2016-Sep-15 18:33N 20°31' W 086°57'  

Dump ship's entire track history